Time;durP1;ratioP1;P1;durP2;ratioP2;P2;SDS_P1;SDS_P2;PMS_P1;PMS_P2;Temp;Humidity;BMP_temperature;BMP_pressure;BME280_temperature;BME280_humidity;BME280_pressure;Samples;Min_cycle;Max_cycle;Signal;HPM_P1;HPM_P2
2021/03/19 00:00:14;;;;;;;8.50;7.07;;;4.30;86.80;;;;;;4968816;28;20230;-90
2021/03/19 00:02:40;;;;;;;7.87;7.07;;;4.40;85.50;;;;;;4968387;28;20250;-89
2021/03/19 00:05:11;;;;;;;6.83;5.97;;;4.10;86.90;;;;;;5001536;28;20218;-90
2021/03/19 00:07:41;;;;;;;8.17;6.70;;;4.00;86.20;;;;;;4972044;28;20194;-91
2021/03/19 00:10:09;;;;;;;7.67;6.87;;;4.00;86.50;;;;;;4989846;28;20206;-90
2021/03/19 00:12:34;;;;;;;8.60;6.53;;;3.80;88.10;;;;;;4972560;28;20183;-90
2021/03/19 00:15:00;;;;;;;7.73;6.83;;;3.80;88.20;;;;;;4988695;28;20194;-88
2021/03/19 00:17:26;;;;;;;7.70;6.27;;;3.70;88.70;;;;;;4989625;28;20241;-90
2021/03/19 00:19:52;;;;;;;7.80;6.77;;;3.80;87.50;;;;;;4991356;28;20210;-89
2021/03/19 00:22:18;;;;;;;7.37;6.63;;;3.70;90.30;;;;;;4995849;28;20191;-89
2021/03/19 00:24:44;;;;;;;7.73;6.93;;;3.70;89.70;;;;;;4994428;28;20215;-90
2021/03/19 00:27:10;;;;;;;7.93;6.57;;;3.70;88.40;;;;;;5001019;28;20218;-90
2021/03/19 00:29:36;;;;;;;8.87;7.63;;;3.60;89.00;;;;;;4989203;28;20187;-91
2021/03/19 00:32:02;;;;;;;7.80;6.97;;;3.60;88.20;;;;;;4989700;28;20226;-91
2021/03/19 00:34:28;;;;;;;8.27;6.87;;;3.60;89.20;;;;;;4969711;28;20203;-90
2021/03/19 00:36:54;;;;;;;7.73;6.93;;;3.50;89.60;;;;;;4966123;28;20189;-89
2021/03/19 00:39:19;;;;;;;9.37;7.87;;;3.60;88.90;;;;;;4988751;28;20219;-90
2021/03/19 00:41:45;;;;;;;8.87;7.40;;;3.40;90.20;;;;;;4988525;28;20219;-89
2021/03/19 00:44:11;;;;;;;11.27;7.50;;;3.50;90.20;;;;;;4988954;28;20214;-89
2021/03/19 00:46:37;;;;;;;8.70;6.67;;;3.40;89.60;;;;;;4988827;28;20179;-90
2021/03/19 00:49:03;;;;;;;7.77;6.97;;;3.60;89.20;;;;;;4972270;28;20175;-89
2021/03/19 00:51:29;;;;;;;9.10;7.83;;;3.50;89.10;;;;;;4988243;28;20203;-90
2021/03/19 00:53:55;;;;;;;10.27;9.27;;;3.40;89.70;;;;;;4988875;28;20179;-90
2021/03/19 00:56:20;;;;;;;9.43;8.37;;;3.10;90.80;;;;;;4971987;28;20188;-90
2021/03/19 00:58:46;;;;;;;9.83;8.80;;;3.10;92.40;;;;;;4988495;28;20195;-90
2021/03/19 01:01:12;;;;;;;11.87;9.00;;;3.10;92.30;;;;;;4988906;28;20206;-90
2021/03/19 01:03:38;;;;;;;11.17;9.57;;;3.10;92.20;;;;;;4988915;28;20218;-90
2021/03/19 01:06:03;;;;;;;10.60;9.03;;;3.10;91.90;;;;;;4994950;28;20187;-89
2021/03/19 01:08:29;;;;;;;12.00;10.00;;;3.20;91.20;;;;;;4964832;28;20194;-90
2021/03/19 01:10:57;;;;;;;11.83;9.97;;;3.30;91.00;;;;;;4982127;28;20271;-91
2021/03/19 01:13:25;;;;;;;11.07;9.97;;;3.20;90.30;;;;;;4982220;28;20194;-90
2021/03/19 01:15:51;;;;;;;10.73;9.63;;;3.20;90.60;;;;;;4982156;28;20232;-90
2021/03/19 01:18:21;;;;;;;10.27;9.10;;;3.20;90.30;;;;;;4981815;28;20238;-91
2021/03/19 01:20:48;;;;;;;11.20;10.03;;;3.20;91.00;;;;;;4982254;28;20207;-90
2021/03/19 01:23:15;;;;;;;11.83;10.63;;;3.00;91.50;;;;;;4981768;28;20206;-90
2021/03/19 01:25:41;;;;;;;13.40;11.03;;;3.00;92.00;;;;;;4981080;28;20187;-91
2021/03/19 01:28:07;;;;;;;12.13;10.77;;;3.00;91.70;;;;;;4982542;28;20179;-90
2021/03/19 01:30:36;;;;;;;11.47;10.27;;;2.90;92.20;;;;;;4965094;28;20222;-91
2021/03/19 01:33:02;;;;;;;12.47;11.27;;;2.90;92.00;;;;;;4983375;28;20198;-90
2021/03/19 01:35:31;;;;;;;13.53;10.83;;;2.90;92.10;;;;;;4983454;28;20202;-90
2021/03/19 01:37:57;;;;;;;14.90;12.20;;;2.80;93.40;;;;;;4983057;28;20237;-91
2021/03/19 01:40:25;;;;;;;13.00;11.37;;;2.90;93.10;;;;;;4982219;28;20203;-91
2021/03/19 01:43:09;;;;;;;13.57;12.27;;;2.90;92.80;;;;;;4964989;28;20559;-90
2021/03/19 01:46:12;;;;;;;14.13;11.97;;;2.80;93.40;;;;;;4982273;28;20175;-92
2021/03/19 01:49:15;;;;;;;13.37;11.97;;;2.80;94.30;;;;;;4982381;28;20198;-90
2021/03/19 01:52:18;;;;;;;13.70;12.23;;;2.90;92.90;;;;;;4981806;28;20190;-88
2021/03/19 01:55:21;;;;;;;13.53;11.90;;;3.00;93.00;;;;;;4981674;28;20182;-90
2021/03/19 01:58:24;;;;;;;13.40;12.00;;;2.90;93.00;;;;;;4984386;28;20542;-90
2021/03/19 02:01:27;;;;;;;12.77;11.47;;;3.00;92.60;;;;;;4981228;28;20574;-89
2021/03/19 02:04:31;;;;;;;13.77;12.40;;;3.00;93.00;;;;;;4981657;28;20215;-90
2021/03/19 02:07:34;;;;;;;14.10;12.47;;;3.10;92.60;;;;;;4980874;28;20654;-90
2021/03/19 02:10:37;;;;;;;14.23;12.00;;;3.10;92.70;;;;;;4962574;29;20226;-90
2021/03/19 02:13:40;;;;;;;12.83;11.37;;;2.90;94.00;;;;;;4971039;28;20202;-91
2021/03/19 02:16:43;;;;;;;13.53;12.23;;;2.70;95.10;;;;;;4980911;28;20206;-91
2021/03/19 02:19:46;;;;;;;12.60;10.93;;;2.60;96.50;;;;;;4981550;28;20195;-91
2021/03/19 02:22:49;;;;;;;12.73;11.10;;;2.70;95.50;;;;;;4981605;28;20623;-92
2021/03/19 02:25:52;;;;;;;12.30;10.90;;;2.80;94.10;;;;;;4980408;28;20209;-91
2021/03/19 02:28:56;;;;;;;12.80;11.50;;;2.80;93.30;;;;;;4980700;28;20183;-91
2021/03/19 02:31:55;;;;;;;13.03;11.70;;;2.90;93.70;;;;;;4969867;28;20229;-90
2021/03/19 02:34:28;;;;;;;12.17;10.87;;;2.90;94.90;;;;;;4976338;28;20294;-90
2021/03/19 02:36:54;;;;;;;13.10;11.80;;;3.00;94.30;;;;;;4980454;28;20178;-90
2021/03/19 02:39:20;;;;;;;13.87;12.17;;;3.00;93.60;;;;;;4980399;28;20230;-90
2021/03/19 02:41:45;;;;;;;13.00;11.60;;;3.10;93.00;;;;;;4959793;29;20223;-91
2021/03/19 02:44:11;;;;;;;14.10;12.23;;;3.10;93.20;;;;;;4956677;28;20215;-91
2021/03/19 02:46:37;;;;;;;14.03;12.37;;;3.00;92.70;;;;;;4980257;28;20199;-91
2021/03/19 02:49:02;;;;;;;12.90;11.70;;;3.00;94.30;;;;;;4980484;28;20243;-91
2021/03/19 02:51:28;;;;;;;13.37;11.67;;;3.00;92.80;;;;;;4980205;28;20210;-90
2021/03/19 02:53:54;;;;;;;12.73;11.50;;;3.00;93.80;;;;;;4980425;28;20183;-89
2021/03/19 02:56:19;;;;;;;14.33;12.80;;;3.00;94.30;;;;;;4979933;28;20182;-91
2021/03/19 02:58:45;;;;;;;14.80;13.40;;;3.00;93.70;;;;;;4980423;28;20674;-91
2021/03/19 03:01:11;;;;;;;13.70;12.37;;;2.90;94.30;;;;;;4980172;28;20698;-91
2021/03/19 03:03:37;;;;;;;15.03;13.53;;;3.00;93.40;;;;;;4987254;28;20215;-89
2021/03/19 03:06:03;;;;;;;15.53;13.93;;;3.10;92.70;;;;;;4995690;28;20179;-90
2021/03/19 03:08:31;;;;;;;14.57;13.07;;;3.10;93.00;;;;;;4958569;28;20187;-91
2021/03/19 03:10:57;;;;;;;18.37;15.23;;;3.00;93.70;;;;;;4978205;28;20203;-90
2021/03/19 03:13:23;;;;;;;14.17;12.77;;;2.90;93.50;;;;;;4981090;28;20186;-90
2021/03/19 03:15:49;;;;;;;17.03;14.90;;;3.00;94.80;;;;;;4980840;28;20187;-90
2021/03/19 03:18:16;;;;;;;16.67;14.77;;;3.10;94.10;;;;;;4980365;28;20302;-92
2021/03/19 03:20:56;;;;;;;14.90;13.30;;;3.30;92.50;;;;;;4980607;28;20230;-91
2021/03/19 03:23:24;;;;;;;16.50;14.70;;;3.40;91.60;;;;;;4978826;28;20182;-91
2021/03/19 03:25:51;;;;;;;19.13;16.63;;;3.30;92.40;;;;;;4980155;28;20197;-91
2021/03/19 03:28:17;;;;;;;20.60;18.13;;;2.90;93.70;;;;;;4980811;28;20190;-91
2021/03/19 03:30:50;;;;;;;19.77;17.17;;;2.70;96.20;;;;;;4979538;28;20261;-91
2021/03/19 03:33:16;;;;;;;18.90;16.90;;;2.70;97.00;;;;;;4979899;28;20539;-91
2021/03/19 03:35:43;;;;;;;19.57;16.60;;;2.80;96.10;;;;;;4994728;28;20190;-91
2021/03/19 03:38:12;;;;;;;19.93;17.83;;;2.70;96.60;;;;;;4980226;28;20753;-91
2021/03/19 03:40:50;;;;;;;19.47;17.43;;;2.70;96.50;;;;;;4983898;28;20195;-90
2021/03/19 03:43:17;;;;;;;16.73;14.93;;;2.80;95.00;;;;;;4986221;28;20175;-91
2021/03/19 03:45:43;;;;;;;19.00;16.73;;;2.80;96.30;;;;;;4984702;28;20194;-91
2021/03/19 03:48:11;;;;;;;18.80;16.83;;;2.70;97.10;;;;;;4984673;28;20202;-91
2021/03/19 03:50:38;;;;;;;18.80;15.80;;;2.90;95.20;;;;;;4998653;28;20210;-90
2021/03/19 03:53:07;;;;;;;16.13;14.43;;;3.10;95.10;;;;;;4983706;28;20552;-90
2021/03/19 03:55:34;;;;;;;19.87;16.13;;;3.20;94.60;;;;;;4983468;28;20190;-90
2021/03/19 03:58:00;;;;;;;18.77;16.20;;;3.20;93.70;;;;;;4965481;28;20195;-91
2021/03/19 04:00:26;;;;;;;19.97;17.63;;;3.00;94.30;;;;;;4966164;28;20211;-91
2021/03/19 04:02:52;;;;;;;18.93;16.00;;;3.00;94.80;;;;;;4984083;28;20179;-92
2021/03/19 04:05:24;;;;;;;20.07;16.43;;;3.00;94.50;;;;;;4983949;28;20211;-89
2021/03/19 04:07:49;;;;;;;19.27;16.57;;;2.90;96.30;;;;;;4983080;28;20647;-91
2021/03/19 04:10:16;;;;;;;17.93;16.03;;;2.90;95.90;;;;;;4967209;28;20230;-91
2021/03/19 04:12:42;;;;;;;18.37;16.23;;;3.00;95.40;;;;;;4984682;28;20183;-91
2021/03/19 04:15:09;;;;;;;18.07;15.17;;;3.10;95.30;;;;;;4984722;28;20182;-90
2021/03/19 04:17:35;;;;;;;17.37;14.53;;;3.10;93.50;;;;;;4983643;28;20731;-91
2021/03/19 04:20:03;;;;;;;17.80;15.57;;;3.00;96.10;;;;;;4983330;28;20210;-91
2021/03/19 04:22:29;;;;;;;15.80;14.23;;;3.20;94.50;;;;;;4984936;28;20187;-91
2021/03/19 04:24:55;;;;;;;16.70;14.90;;;3.30;93.70;;;;;;4986240;28;20238;-91
2021/03/19 04:27:24;;;;;;;18.23;14.57;;;3.30;93.70;;;;;;4985121;28;20202;-91
2021/03/19 04:29:53;;;;;;;14.40;12.50;;;3.40;92.10;;;;;;4986268;28;20198;-90
2021/03/19 04:32:19;;;;;;;14.30;12.80;;;3.50;92.20;;;;;;4985937;28;20591;-90
2021/03/19 04:34:45;;;;;;;15.53;13.93;;;3.60;91.50;;;;;;4990699;28;20215;-91
2021/03/19 04:37:12;;;;;;;14.10;12.60;;;3.70;90.30;;;;;;4985595;28;20204;-90
2021/03/19 04:39:41;;;;;;;15.20;13.63;;;3.60;90.50;;;;;;4993994;28;20214;-89
2021/03/19 04:42:09;;;;;;;15.83;13.93;;;3.60;91.70;;;;;;4993855;28;20187;-88
2021/03/19 04:44:44;;;;;;;15.50;13.97;;;3.70;91.80;;;;;;4994563;28;20213;-91
2021/03/19 04:47:10;;;;;;;14.43;12.77;;;3.70;90.50;;;;;;4986861;28;20174;-91
2021/03/19 04:49:37;;;;;;;14.00;12.57;;;3.80;90.10;;;;;;4968173;28;20226;-91
2021/03/19 04:52:03;;;;;;;14.93;13.43;;;3.70;90.40;;;;;;4984116;28;20262;-90
2021/03/19 04:54:29;;;;;;;16.97;13.23;;;3.30;92.60;;;;;;4985819;28;20206;-91
2021/03/19 04:56:56;;;;;;;16.23;14.13;;;3.20;92.70;;;;;;4984990;28;20190;-89
2021/03/19 04:59:22;;;;;;;15.70;13.37;;;3.10;94.10;;;;;;4985665;28;20215;-90
2021/03/19 05:01:51;;;;;;;13.60;12.20;;;3.20;95.30;;;;;;4985298;28;20207;-91
2021/03/19 05:04:17;;;;;;;14.60;12.83;;;3.40;93.20;;;;;;4985430;28;20298;-90
2021/03/19 05:06:44;;;;;;;13.43;12.13;;;3.50;92.50;;;;;;4986794;28;20187;-92
2021/03/19 05:09:10;;;;;;;15.33;12.90;;;3.50;92.00;;;;;;5002254;28;20615;-91
2021/03/19 05:11:36;;;;;;;14.50;13.07;;;3.60;92.10;;;;;;4986207;28;20210;-91
2021/03/19 05:14:03;;;;;;;14.30;12.87;;;3.70;91.40;;;;;;4986375;28;20266;-90
2021/03/19 05:16:29;;;;;;;13.50;12.03;;;3.80;90.60;;;;;;4969378;28;20234;-91
2021/03/19 05:18:55;;;;;;;17.20;15.40;;;3.80;90.80;;;;;;4987348;28;20289;-92
2021/03/19 05:21:20;;;;;;;13.27;11.97;;;3.80;90.00;;;;;;4984890;28;20238;-90
2021/03/19 05:23:46;;;;;;;14.67;13.27;;;3.90;89.70;;;;;;4985106;28;20226;-91
2021/03/19 05:26:12;;;;;;;15.23;13.70;;;4.00;90.10;;;;;;4984860;28;20217;-89
2021/03/19 05:28:38;;;;;;;13.67;12.27;;;3.90;89.20;;;;;;4986634;28;20191;-90
2021/03/19 05:31:05;;;;;;;15.73;14.23;;;3.90;89.30;;;;;;4985957;28;20199;-90
2021/03/19 05:33:43;;;;;;;14.90;13.43;;;4.00;88.50;;;;;;4985648;28;20237;-90
2021/03/19 05:36:10;;;;;;;13.53;12.13;;;4.00;87.90;;;;;;4950624;28;20199;-91
2021/03/19 05:38:36;;;;;;;16.63;14.93;;;4.10;88.50;;;;;;4985338;28;20191;-90
2021/03/19 05:41:03;;;;;;;15.00;13.50;;;3.80;89.80;;;;;;4985288;28;20239;-90
2021/03/19 05:43:34;;;;;;;14.40;13.00;;;3.80;90.80;;;;;;4968517;28;20221;-90
2021/03/19 05:46:13;;;;;;;14.70;13.37;;;4.00;89.50;;;;;;4985395;28;20179;-90
2021/03/19 05:48:44;;;;;;;14.27;12.77;;;4.10;89.30;;;;;;4988415;28;20222;-90
2021/03/19 05:51:39;;;;;;;13.93;12.53;;;4.20;89.00;;;;;;4977460;28;20198;-90
2021/03/19 05:54:28;;;;;;;14.70;13.20;;;4.20;88.50;;;;;;4988253;28;20199;-91
2021/03/19 05:56:59;;;;;;;12.50;11.20;;;4.30;87.70;;;;;;4978710;28;20187;-92
2021/03/19 05:59:28;;;;;;;14.50;12.90;;;4.30;88.30;;;;;;4984516;28;20195;-91
2021/03/19 06:01:54;;;;;;;15.47;13.87;;;4.30;87.90;;;;;;4975282;28;20194;-90
2021/03/19 06:04:23;;;;;;;16.37;14.73;;;4.30;88.30;;;;;;4988730;28;20254;-90
2021/03/19 06:06:56;;;;;;;15.03;13.50;;;4.30;89.30;;;;;;4984723;28;20713;-89
2021/03/19 06:09:26;;;;;;;15.43;13.67;;;4.10;89.50;;;;;;4968230;28;20186;-91
2021/03/19 06:11:56;;;;;;;14.80;13.40;;;4.10;90.50;;;;;;4964273;28;20206;-91
2021/03/19 06:14:23;;;;;;;13.83;12.33;;;4.10;90.30;;;;;;4993171;28;20186;-90
2021/03/19 06:16:59;;;;;;;15.80;13.90;;;4.10;90.30;;;;;;4964890;28;20189;-90
2021/03/19 06:19:44;;;;;;;14.73;13.23;;;4.10;90.40;;;;;;4994016;28;20221;-91
2021/03/19 06:22:28;;;;;;;13.93;12.53;;;4.20;90.50;;;;;;4986379;28;20282;-89
2021/03/19 06:25:15;;;;;;;15.03;13.53;;;4.30;90.00;;;;;;4985744;28;20663;-91
2021/03/19 06:28:02;;;;;;;20.83;15.13;;;4.30;89.50;;;;;;4966700;28;20182;-88
2021/03/19 06:30:33;;;;;;;14.67;12.50;;;4.40;89.00;;;;;;4984397;28;20198;-89
2021/03/19 06:34:31;;;;;;;13.13;11.67;;;4.30;89.40;;;;;;4984042;28;20167;-90
2021/03/19 06:36:33;;;;;;;13.40;12.07;;;4.40;88.90;;;;;;4962725;28;20325;-91
2021/03/19 06:39:07;;;;;;;13.97;12.10;;;4.40;89.30;;;;;;4982409;28;20190;-90
2021/03/19 06:41:37;;;;;;;13.83;12.43;;;4.40;88.50;;;;;;4984321;28;20203;-89
2021/03/19 06:44:14;;;;;;;13.00;11.70;;;4.60;88.20;;;;;;4972573;28;20215;-89
2021/03/19 06:46:45;;;;;;;13.13;11.73;;;4.50;88.30;;;;;;4983065;28;20679;-90
2021/03/19 06:49:12;;;;;;;13.90;12.40;;;4.40;88.60;;;;;;4984325;28;20234;-89
2021/03/19 06:51:46;;;;;;;13.53;12.13;;;4.40;89.00;;;;;;4987317;28;20236;-89
2021/03/19 06:54:16;;;;;;;13.17;11.87;;;4.40;89.90;;;;;;4982498;28;20200;-90
2021/03/19 06:57:02;;;;;;;12.57;11.30;;;4.40;90.20;;;;;;4999044;28;20199;-91
2021/03/19 06:59:38;;;;;;;13.17;11.70;;;4.30;90.60;;;;;;4988065;28;20207;-90
2021/03/19 07:02:33;;;;;;;15.17;13.37;;;4.30;90.60;;;;;;4986829;28;20256;-91
2021/03/19 07:05:02;;;;;;;14.00;11.43;;;4.30;90.60;;;;;;4991275;28;20215;-90
2021/03/19 07:07:36;;;;;;;13.37;12.10;;;4.10;89.30;;;;;;4985890;28;20214;-90
2021/03/19 07:10:14;;;;;;;11.80;10.70;;;3.90;90.90;;;;;;4983832;28;20206;-90
2021/03/19 07:13:03;;;;;;;12.40;11.10;;;3.90;91.30;;;;;;4986108;28;20197;-90
2021/03/19 07:15:51;;;;;;;12.37;11.17;;;3.90;91.60;;;;;;4985364;28;20206;-90
2021/03/19 07:18:33;;;;;;;13.33;11.93;;;4.00;91.00;;;;;;4991839;28;20228;-90
2021/03/19 07:21:42;;;;;;;13.53;11.93;;;3.90;91.50;;;;;;4990068;28;20241;-90
2021/03/19 07:24:29;;;;;;;12.20;10.47;;;3.80;91.90;;;;;;4992319;28;20210;-90
2021/03/19 07:27:23;;;;;;;11.90;10.70;;;3.80;93.40;;;;;;4989152;28;20209;-89
2021/03/19 07:30:23;;;;;;;11.43;10.20;;;3.90;92.60;;;;;;4986531;28;20215;-90
2021/03/19 07:33:20;;;;;;;12.23;10.70;;;3.80;91.90;;;;;;4974031;28;20183;-90
2021/03/19 07:36:07;;;;;;;12.63;9.60;;;3.90;92.50;;;;;;4990823;28;20178;-90
2021/03/19 07:39:06;;;;;;;11.87;10.63;;;3.80;92.70;;;;;;4989778;28;20183;-90
2021/03/19 07:41:53;;;;;;;13.20;11.23;;;3.80;93.10;;;;;;4989892;28;20281;-90
2021/03/19 07:44:35;;;;;;;13.47;11.13;;;3.80;92.80;;;;;;4992032;28;20202;-90
2021/03/19 07:47:19;;;;;;;13.83;11.83;;;3.80;93.70;;;;;;4988988;28;20189;-90
2021/03/19 07:50:00;;;;;;;11.87;10.03;;;3.80;93.60;;;;;;4991691;28;20189;-90
2021/03/19 07:53:04;;;;;;;13.93;12.00;;;3.80;93.40;;;;;;4997709;28;20524;-89
2021/03/19 07:55:55;;;;;;;14.70;12.50;;;3.70;94.50;;;;;;4967537;28;20194;-90
2021/03/19 07:58:43;;;;;;;14.80;12.77;;;3.70;94.70;;;;;;4991194;28;20190;-90
2021/03/19 08:01:21;;;;;;;15.87;13.63;;;3.60;94.80;;;;;;4992202;28;20208;-90
2021/03/19 08:03:59;;;;;;;15.03;11.97;;;3.60;95.10;;;;;;5001182;28;20228;-90
2021/03/19 08:06:32;;;;;;;19.20;12.43;;;3.60;95.70;;;;;;4978819;28;20190;-89
2021/03/19 08:09:19;;;;;;;13.27;11.33;;;3.70;95.10;;;;;;4994114;28;20187;-90
2021/03/19 08:11:57;;;;;;;14.23;11.27;;;3.70;95.20;;;;;;4989382;28;20207;-89
2021/03/19 08:14:52;;;;;;;12.47;10.57;;;3.80;95.00;;;;;;4989398;28;20187;-89
2021/03/19 08:17:23;;;;;;;13.33;11.40;;;3.70;95.30;;;;;;4987636;28;20282;-90
2021/03/19 08:20:15;;;;;;;12.53;10.07;;;3.70;95.90;;;;;;4993423;28;20718;-89
2021/03/19 08:22:53;;;;;;;12.87;11.20;;;3.80;95.60;;;;;;4992919;28;20274;-89
2021/03/19 08:25:27;;;;;;;12.00;10.70;;;4.00;94.80;;;;;;4997308;28;20202;-90
2021/03/19 08:28:22;;;;;;;12.97;11.50;;;4.10;95.50;;;;;;4990648;28;20271;-89
2021/03/19 08:31:11;;;;;;;14.43;11.87;;;4.20;92.70;;;;;;4990312;28;20579;-90
2021/03/19 08:34:05;;;;;;;11.87;10.20;;;4.10;93.10;;;;;;4985994;28;20198;-90
2021/03/19 08:36:52;;;;;;;12.97;11.13;;;4.00;92.20;;;;;;4984494;28;20211;-89
2021/03/19 08:39:35;;;;;;;13.10;11.33;;;3.80;93.70;;;;;;4987150;28;20195;-89
2021/03/19 08:42:24;;;;;;;13.93;10.83;;;3.80;93.00;;;;;;4984100;28;20198;-90
2021/03/19 08:44:49;;;;;;;14.10;12.30;;;3.90;94.00;;;;;;4989221;28;20209;-90
2021/03/19 08:47:53;;;;;;;14.67;12.40;;;3.90;93.40;;;;;;4985601;28;20191;-90
2021/03/19 08:50:38;;;;;;;14.90;11.53;;;3.90;93.30;;;;;;4910478;29;20309;-91
2021/03/19 08:53:19;;;;;;;16.60;13.57;;;4.10;93.10;;;;;;4980058;28;20199;-90
2021/03/19 08:56:05;;;;;;;17.93;14.27;;;4.20;93.80;;;;;;4987121;28;20179;-89
2021/03/19 08:58:31;;;;;;;15.77;14.17;;;4.30;93.50;;;;;;4979581;28;20190;-89
2021/03/19 09:01:07;;;;;;;17.37;15.07;;;4.50;91.80;;;;;;4993004;28;20270;-90
2021/03/19 09:03:42;;;;;;;16.57;14.30;;;4.40;91.70;;;;;;5003713;28;20198;-90
2021/03/19 09:06:21;;;;;;;19.07;15.60;;;4.50;91.90;;;;;;4985819;28;20253;-90
2021/03/19 09:09:31;;;;;;;19.40;15.60;;;4.60;90.40;;;;;;4990553;28;20179;-89
2021/03/19 09:11:56;;;;;;;18.47;15.30;;;4.60;91.20;;;;;;4996365;28;20269;-91
2021/03/19 09:14:42;;;;;;;19.80;15.90;;;4.60;91.40;;;;;;4975584;28;20198;-89
2021/03/19 09:17:13;;;;;;;18.23;16.23;;;4.60;94.80;;;;;;4971742;28;20187;-90
2021/03/19 09:20:03;;;;;;;21.30;17.23;;;4.70;91.10;;;;;;4992145;28;20190;-90
2021/03/19 09:22:33;;;;;;;19.40;16.87;;;4.70;92.00;;;;;;4990369;28;20210;-90
2021/03/19 09:25:11;;;;;;;21.33;16.97;;;4.70;91.70;;;;;;4986422;28;20217;-89
2021/03/19 09:27:40;;;;;;;20.80;17.07;;;4.80;91.00;;;;;;4970056;28;20195;-90
2021/03/19 09:30:24;;;;;;;24.27;18.03;;;4.80;90.00;;;;;;4971077;28;20581;-90
2021/03/19 09:32:52;;;;;;;24.10;19.17;;;4.80;90.40;;;;;;4990856;28;20206;-89
2021/03/19 09:35:36;;;;;;;23.83;19.83;;;4.70;90.30;;;;;;4986002;28;20187;-89
2021/03/19 09:38:05;;;;;;;26.33;20.17;;;4.70;90.50;;;;;;4986530;28;20867;-89
2021/03/19 09:40:39;;;;;;;25.77;19.83;;;4.50;90.10;;;;;;4968584;28;20211;-89
2021/03/19 09:43:08;;;;;;;22.70;16.27;;;4.50;90.70;;;;;;4994221;28;20186;-89
2021/03/19 09:45:37;;;;;;;23.97;18.27;;;4.60;90.30;;;;;;4993344;28;20250;-88
2021/03/19 09:48:22;;;;;;;26.07;19.10;;;4.60;90.80;;;;;;4990433;28;20194;-89
2021/03/19 09:50:51;;;;;;;22.50;18.40;;;4.70;90.30;;;;;;4987876;28;20199;-88
2021/03/19 09:53:17;;;;;;;20.63;16.80;;;4.60;88.60;;;;;;4988902;28;20187;-88
2021/03/19 09:55:58;;;;;;;26.43;20.13;;;4.60;89.10;;;;;;4991998;28;20210;-88
2021/03/19 09:58:31;;;;;;;26.93;19.70;;;4.60;89.70;;;;;;4984784;28;20190;-89
2021/03/19 10:01:02;;;;;;;20.60;15.77;;;4.70;88.20;;;;;;4989403;28;20388;-89
2021/03/19 10:03:49;;;;;;;19.13;16.33;;;4.60;86.00;;;;;;4988973;28;20191;-88
2021/03/19 10:06:31;;;;;;;18.43;14.97;;;4.60;86.70;;;;;;4981255;28;20190;-89
2021/03/19 10:09:22;;;;;;;20.87;15.60;;;4.60;87.50;;;;;;4983618;28;20258;-88
2021/03/19 10:11:58;;;;;;;17.83;14.63;;;4.70;86.40;;;;;;4984143;28;20211;-88
2021/03/19 10:14:31;;;;;;;18.63;15.03;;;4.70;86.00;;;;;;4985261;28;20205;-89
2021/03/19 10:17:07;;;;;;;18.77;14.03;;;4.70;86.60;;;;;;4968828;28;20195;-89
2021/03/19 10:19:36;;;;;;;15.67;13.93;;;4.70;86.60;;;;;;4988682;28;20205;-89
2021/03/19 10:22:01;;;;;;;16.90;13.43;;;4.80;84.60;;;;;;4990805;28;20191;-89
2021/03/19 10:24:28;;;;;;;17.10;13.10;;;4.80;85.10;;;;;;4988318;28;20317;-90
2021/03/19 10:27:13;;;;;;;17.77;13.37;;;4.90;84.00;;;;;;4986412;28;20254;-88
2021/03/19 10:29:43;;;;;;;16.53;12.70;;;5.10;83.80;;;;;;4990890;28;20233;-89
2021/03/19 10:32:13;;;;;;;15.97;13.43;;;5.10;83.60;;;;;;4987627;28;20187;-89
2021/03/19 10:35:17;;;;;;;15.13;12.40;;;5.30;86.20;;;;;;4975608;28;20191;-90
2021/03/19 10:38:09;;;;;;;13.60;11.03;;;5.40;82.40;;;;;;4983283;28;20281;-89
2021/03/19 10:40:37;;;;;;;14.67;11.67;;;5.50;81.50;;;;;;4987846;28;20210;-89
2021/03/19 10:43:19;;;;;;;12.57;10.13;;;5.60;80.90;;;;;;4984146;28;20548;-90
2021/03/19 10:45:54;;;;;;;14.23;11.67;;;5.70;80.90;;;;;;4982104;28;20179;-90
2021/03/19 10:48:35;;;;;;;9.37;8.13;;;5.50;81.00;;;;;;4987984;28;20178;-88
2021/03/19 10:51:06;;;;;;;5.20;4.70;;;5.00;83.30;;;;;;4983193;28;20203;-92
2021/03/19 10:53:58;;;;;;;6.07;5.33;;;4.40;84.30;;;;;;4991364;28;20182;-93
2021/03/19 10:56:26;;;;;;;10.47;7.47;;;4.00;87.10;;;;;;4994923;28;20187;-92
2021/03/19 10:59:07;;;;;;;12.33;8.60;;;3.90;88.80;;;;;;4990018;28;20190;-89
2021/03/19 11:01:37;;;;;;;10.87;7.87;;;4.00;89.70;;;;;;4985111;28;20225;-89
2021/03/19 11:04:34;;;;;;;9.30;7.27;;;3.80;89.40;;;;;;4985911;28;20245;-90
2021/03/19 11:07:16;;;;;;;12.63;9.97;;;4.00;90.10;;;;;;4983545;28;20175;-89
2021/03/19 11:10:01;;;;;;;16.20;11.80;;;3.90;90.80;;;;;;4969505;28;20178;-89
2021/03/19 11:12:36;;;;;;;10.07;7.87;;;4.10;90.50;;;;;;4984755;28;20259;-89
2021/03/19 11:15:10;;;;;;;33.90;21.37;;;3.90;90.50;;;;;;4976229;28;20209;-90
2021/03/19 11:17:36;;;;;;;11.57;9.13;;;4.00;91.90;;;;;;4986476;28;20217;-87
2021/03/19 11:20:17;;;;;;;9.27;7.43;;;4.10;90.80;;;;;;4992035;28;20668;-89
2021/03/19 11:22:46;;;;;;;10.80;7.97;;;4.20;90.40;;;;;;4992009;28;20193;-89
2021/03/19 11:25:26;;;;;;;7.23;6.43;;;4.20;90.30;;;;;;4987313;28;20234;-89
2021/03/19 11:27:52;;;;;;;14.47;9.37;;;4.30;90.50;;;;;;4990692;28;20194;-89
2021/03/19 11:30:24;;;;;;;7.60;6.60;;;4.30;90.20;;;;;;4986411;28;20293;-90
2021/03/19 11:33:13;;;;;;;8.33;7.07;;;4.40;88.80;;;;;;4975711;28;20186;-89
2021/03/19 11:35:39;;;;;;;17.10;10.80;;;4.50;90.60;;;;;;4983972;28;20564;-88
2021/03/19 11:38:37;;;;;;;11.10;9.23;;;4.80;88.30;;;;;;4987006;28;20191;-89
2021/03/19 11:41:28;;;;;;;10.07;7.13;;;4.90;87.00;;;;;;4987513;28;20210;-89
2021/03/19 11:43:55;;;;;;;7.93;7.13;;;4.70;88.90;;;;;;4985066;28;20257;-89
2021/03/19 11:46:22;;;;;;;9.57;8.30;;;4.90;89.90;;;;;;4988660;28;20259;-89
2021/03/19 11:48:48;;;;;;;11.40;9.17;;;4.90;87.50;;;;;;4986662;28;20222;-89
2021/03/19 11:51:30;;;;;;;11.20;8.77;;;5.00;87.40;;;;;;4986067;28;20218;-90
2021/03/19 11:53:57;;;;;;;20.27;12.37;;;5.00;87.80;;;;;;4986127;28;20198;-89
2021/03/19 11:56:23;;;;;;;9.80;7.80;;;5.00;86.10;;;;;;4985683;28;20191;-88
2021/03/19 11:58:49;;;;;;;16.60;10.50;;;5.20;86.20;;;;;;4987049;28;20222;-89
2021/03/19 12:01:15;;;;;;;89.23;33.37;;;5.40;86.00;;;;;;4994313;28;20222;-89
2021/03/19 12:03:59;;;;;;;91.20;27.80;;;5.60;83.40;;;;;;4993960;28;20313;-89
2021/03/19 12:06:28;;;;;;;72.33;22.67;;;5.90;83.80;;;;;;4981055;28;20273;-89
2021/03/19 12:08:54;;;;;;;16.70;15.10;;;5.70;78.50;;;;;;4993356;28;20274;-88
2021/03/19 12:11:27;;;;;;;19.37;17.77;;;5.60;81.70;;;;;;4993170;28;20202;-89
2021/03/19 12:13:54;;;;;;;29.90;27.50;;;5.60;82.50;;;;;;4993044;28;20242;-88
2021/03/19 12:16:20;;;;;;;14.40;13.10;;;5.70;83.40;;;;;;4990833;28;20219;-89
2021/03/19 12:18:46;;;;;;;10.60;9.67;;;5.90;84.20;;;;;;4990212;28;20206;-88
2021/03/19 12:21:12;;;;;;;9.10;8.20;;;6.00;81.00;;;;;;4989663;28;21166;-88
2021/03/19 12:23:38;;;;;;;9.57;8.70;;;6.10;80.90;;;;;;4985044;28;20190;-89
2021/03/19 12:26:04;;;;;;;7.93;7.17;;;6.20;81.90;;;;;;4990091;28;20191;-89
2021/03/19 12:28:30;;;;;;;7.87;7.07;;;6.30;78.30;;;;;;4959416;28;20190;-89
2021/03/19 12:30:58;;;;;;;8.03;7.23;;;6.40;78.30;;;;;;4988195;28;20207;-89
2021/03/19 12:33:25;;;;;;;8.10;7.30;;;6.50;75.40;;;;;;4990565;28;20178;-90
2021/03/19 12:35:52;;;;;;;7.63;6.93;;;6.50;75.60;;;;;;4968658;28;20210;-90
2021/03/19 12:38:19;;;;;;;9.63;6.97;;;6.60;76.50;;;;;;4987230;28;20251;-89
2021/03/19 12:40:44;;;;;;;7.63;6.93;;;6.70;74.90;;;;;;4989776;28;20618;-89
2021/03/19 12:43:11;;;;;;;7.10;6.37;;;6.90;76.90;;;;;;4993009;28;20187;-89
2021/03/19 12:45:37;;;;;;;6.57;5.93;;;6.80;75.10;;;;;;4976121;28;20269;-89
2021/03/19 12:48:04;;;;;;;7.07;6.47;;;6.80;73.20;;;;;;4989819;28;20191;-88
2021/03/19 12:50:31;;;;;;;7.37;6.67;;;7.00;73.90;;;;;;4985568;28;20221;-87
2021/03/19 12:53:00;;;;;;;6.53;5.93;;;7.10;72.70;;;;;;4987859;28;20198;-88
2021/03/19 12:55:27;;;;;;;7.07;6.37;;;7.50;71.80;;;;;;4987139;28;20215;-90
2021/03/19 12:57:52;;;;;;;7.73;6.67;;;7.70;71.30;;;;;;4966616;28;20290;-87
2021/03/19 13:00:22;;;;;;;7.43;6.33;;;8.10;70.00;;;;;;4993260;28;20217;-88
2021/03/19 13:02:48;;;;;;;6.80;6.10;;;8.60;65.70;;;;;;4986476;28;20649;-88
2021/03/19 13:05:18;;;;;;;7.10;6.40;;;8.90;61.50;;;;;;4987005;28;20257;-87
2021/03/19 13:07:44;;;;;;;7.30;6.60;;;9.00;61.20;;;;;;4976787;28;20221;-88
2021/03/19 13:10:11;;;;;;;6.37;5.83;;;9.50;60.50;;;;;;4996156;28;20210;-89
2021/03/19 13:12:37;;;;;;;5.80;5.23;;;9.20;61.30;;;;;;4990991;28;20265;-88
2021/03/19 13:15:05;;;;;;;7.23;6.53;;;8.50;64.30;;;;;;4988473;28;20743;-88
2021/03/19 13:17:30;;;;;;;8.10;6.67;;;7.40;69.00;;;;;;4973967;28;20219;-89